createdAt,value
2018-06-02T05:34:23.297Z,68.63
2018-06-02T05:36:51.631Z,68.14
2018-06-02T05:39:19.980Z,67.63
2018-06-02T05:41:47.728Z,67.48
2018-06-02T05:44:16.641Z,67.28
2018-06-02T05:46:44.389Z,67.17
2018-06-02T05:49:13.303Z,67.87
2018-06-02T05:51:41.630Z,68.04
2018-06-02T05:54:09.985Z,67.61
2018-06-02T05:56:38.572Z,67.23
2018-06-02T05:59:07.027Z,66.90
2018-06-02T06:01:35.347Z,66.21
2018-06-02T06:04:03.595Z,65.73
2018-06-02T06:06:32.650Z,65.08
2018-06-02T06:09:00.967Z,63.51
2018-06-02T06:11:29.621Z,62.83
2018-06-02T06:13:57.940Z,61.71
2018-06-02T06:16:26.482Z,60.79
2018-06-02T06:18:54.270Z,60.11
2018-06-02T06:21:23.130Z,59.28
2018-06-02T06:23:51.448Z,58.83
2018-06-02T06:26:19.767Z,58.76
2018-06-02T06:28:48.081Z,58.17
2018-06-02T06:31:16.405Z,56.98
2018-06-02T06:33:44.738Z,56.78
2018-06-02T06:36:13.172Z,57.07
2018-06-02T06:38:41.507Z,56.87
2018-06-02T06:41:10.357Z,56.73
2018-06-02T06:43:38.747Z,56.84
2018-06-02T06:46:07.667Z,56.38
2018-06-02T06:48:35.987Z,56.35
2018-06-02T06:51:04.318Z,56.20
2018-06-02T06:53:32.642Z,56.16
2018-06-02T06:56:00.950Z,56.26
2018-06-02T06:58:29.266Z,56.19
2018-06-02T07:00:57.595Z,56.21
2018-06-02T07:03:25.925Z,55.92
2018-06-02T07:05:54.503Z,55.88
2018-06-02T07:08:22.821Z,55.64
2018-06-02T07:10:50.637Z,55.16
2018-06-02T07:13:19.535Z,54.95
2018-06-02T07:15:47.856Z,55.86
2018-06-02T07:18:16.348Z,57.63
2018-06-02T07:20:44.646Z,58.19
2018-06-02T07:23:12.395Z,58.76
2018-06-02T07:25:42.088Z,59.06
2018-06-02T07:28:10.409Z,59.19
2018-06-02T07:30:38.737Z,59.18
2018-06-02T07:33:06.486Z,58.98
2018-06-02T07:35:35.387Z,59.04
2018-06-02T07:38:05.000Z,58.85
2018-06-02T07:40:33.317Z,58.84
2018-06-02T07:43:01.664Z,58.30
2018-06-02T07:45:29.417Z,57.81
2018-06-02T07:47:58.301Z,57.45
2018-06-02T07:50:26.636Z,57.12
2018-06-02T07:52:54.961Z,56.54
2018-06-02T07:55:23.271Z,56.09
2018-06-02T07:57:51.930Z,56.05
2018-06-02T08:00:19.779Z,56.05
2018-06-02T08:02:48.898Z,55.71
2018-06-02T08:05:17.590Z,55.37
2018-06-02T08:07:45.917Z,54.90
2018-06-02T08:10:14.235Z,54.59
2018-06-02T08:12:42.599Z,54.14
2018-06-02T08:15:11.207Z,53.46
2018-06-02T08:17:39.896Z,53.04
2018-06-02T08:20:08.220Z,52.41
2018-06-02T08:22:36.881Z,51.74
2018-06-02T08:25:05.209Z,51.13
2018-06-02T08:27:33.518Z,50.99
2018-06-02T08:30:01.840Z,50.26
2018-06-02T08:32:30.159Z,49.62
2018-06-02T08:34:58.482Z,49.04
2018-06-02T08:37:26.852Z,48.18
2018-06-02T08:39:55.431Z,47.89
2018-06-02T08:42:23.168Z,47.73
2018-06-02T08:44:51.487Z,47.23
2018-06-02T08:47:19.802Z,46.75
2018-06-02T08:49:48.123Z,45.89
2018-06-02T08:52:17.025Z,45.66
2018-06-02T08:54:45.344Z,46.12
2018-06-02T08:57:13.657Z,46.19
2018-06-02T08:59:42.240Z,45.25
2018-06-02T09:02:10.851Z,45.08
2018-06-02T09:04:39.174Z,43.85
2018-06-02T09:07:07.492Z,43.50
2018-06-02T09:09:35.816Z,42.58
2018-06-02T09:12:04.479Z,41.46
2018-06-02T09:14:32.800Z,41.58
2018-06-02T09:17:01.137Z,41.45
2018-06-02T09:19:28.922Z,40.94
2018-06-02T09:21:57.841Z,40.56
2018-06-02T09:24:26.687Z,41.04
2018-06-02T09:26:58.445Z,41.23
2018-06-02T09:29:26.907Z,40.91
2018-06-02T09:31:55.277Z,40.54
2018-06-02T09:34:23.880Z,40.44
2018-06-02T09:36:52.178Z,40.83
2018-06-02T09:39:21.543Z,41.64
2018-06-02T09:41:49.864Z,40.85
2018-06-02T09:44:18.185Z,41.50
2018-06-02T09:46:46.521Z,41.32
2018-06-02T09:49:14.918Z,41.79
2018-06-02T09:51:44.076Z,41.75
2018-06-02T09:54:12.633Z,42.69
2018-06-02T09:56:41.370Z,42.53
2018-06-02T09:59:09.687Z,42.74
2018-06-02T10:01:38.008Z,42.86
2018-06-02T10:04:06.841Z,43.09
2018-06-02T10:06:36.215Z,42.91
2018-06-02T10:09:05.275Z,43.27
2018-06-02T10:11:32.879Z,43.29
2018-06-02T10:14:01.207Z,42.95
2018-06-02T10:16:30.512Z,42.27
2018-06-02T10:18:59.466Z,42.53
2018-06-02T10:21:30.845Z,41.79
2018-06-02T10:23:58.869Z,40.02
2018-06-02T10:26:27.642Z,39.75
2018-06-02T10:28:56.093Z,39.94
2018-06-02T10:31:24.423Z,41.23
2018-06-02T10:33:53.362Z,40.87
2018-06-02T10:36:21.691Z,40.76
2018-06-02T10:38:50.009Z,41.47
2018-06-02T10:41:19.184Z,40.49
2018-06-02T10:43:48.444Z,40.43
2018-06-02T10:46:16.821Z,40.74
2018-06-02T10:48:46.028Z,40.77
2018-06-02T10:51:14.397Z,40.77
2018-06-02T10:53:43.064Z,41.36
2018-06-02T10:56:11.389Z,42.02
2018-06-02T10:58:40.026Z,41.37
2018-06-02T11:01:08.861Z,41.38
2018-06-02T11:03:37.474Z,41.42
2018-06-02T11:06:05.786Z,40.70
2018-06-02T11:08:33.563Z,40.58
2018-06-02T11:11:02.147Z,40.67
2018-06-02T11:13:30.762Z,40.52
2018-06-02T11:15:59.079Z,39.45
2018-06-02T11:18:27.397Z,37.85
2018-06-02T11:20:55.722Z,36.64
2018-06-02T11:23:24.416Z,38.43
2018-06-02T11:25:53.105Z,38.92
2018-06-02T11:28:21.722Z,38.20
2018-06-02T11:30:50.276Z,37.98
2018-06-02T11:33:18.590Z,37.68
2018-06-02T11:35:47.276Z,36.96
2018-06-02T11:38:15.856Z,36.56
2018-06-02T11:40:44.189Z,37.04
2018-06-02T11:43:12.256Z,36.29
2018-06-02T11:45:40.236Z,35.64
2018-06-02T11:48:09.136Z,33.74
2018-06-02T11:50:36.874Z,34.11
2018-06-02T11:53:05.761Z,34.69
2018-06-02T11:55:34.096Z,33.86
2018-06-02T11:58:02.416Z,33.98
2018-06-02T12:00:31.052Z,34.44
2018-06-02T12:02:59.362Z,34.82
2018-06-02T12:05:27.793Z,35.17
2018-06-02T12:07:56.397Z,34.78
2018-06-02T12:10:24.749Z,34.63
2018-06-02T12:12:52.500Z,33.94
2018-06-02T12:15:20.817Z,33.70
2018-06-02T12:17:49.452Z,33.13
2018-06-02T12:20:18.038Z,33.07
2018-06-02T12:22:46.499Z,32.94
2018-06-02T12:25:14.819Z,32.92
2018-06-02T12:27:43.136Z,32.48
2018-06-02T12:30:10.882Z,32.39
2018-06-02T12:32:40.099Z,31.74
2018-06-02T12:35:08.711Z,31.58
2018-06-02T12:37:37.372Z,29.77
2018-06-02T12:40:06.072Z,31.02
2018-06-02T12:42:34.642Z,31.58
2018-06-02T12:45:03.228Z,31.89
2018-06-02T12:47:32.559Z,32.21
2018-06-02T12:50:00.884Z,33.24
2018-06-02T12:52:29.510Z,33.36
2018-06-02T12:54:57.821Z,33.33
2018-06-02T12:57:25.570Z,33.52
2018-06-02T12:59:54.779Z,32.68
2018-06-02T13:02:23.094Z,32.79
2018-06-02T13:04:51.130Z,32.46
2018-06-02T13:07:20.031Z,32.28
2018-06-02T13:09:48.349Z,30.82
2018-06-02T13:12:16.677Z,30.16
2018-06-02T13:14:44.991Z,29.06
2018-06-02T13:17:13.813Z,29.84
2018-06-02T13:19:42.133Z,30.05
2018-06-02T13:22:11.162Z,29.39
2018-06-02T13:24:39.257Z,28.80
2018-06-02T13:27:07.578Z,28.52
2018-06-02T13:29:36.350Z,27.75
2018-06-02T13:32:04.682Z,27.12
2018-06-02T13:34:33.013Z,27.46
2018-06-02T13:37:01.344Z,25.68
2018-06-02T13:39:30.107Z,25.53
2018-06-02T13:41:58.432Z,25.72
2018-06-02T13:44:26.758Z,24.68
2018-06-02T13:46:55.089Z,24.44
2018-06-02T13:49:23.417Z,24.84
2018-06-02T13:51:51.724Z,24.80
2018-06-02T13:54:19.479Z,24.90
2018-06-02T13:56:48.726Z,24.69
2018-06-02T13:59:17.037Z,24.70
2018-06-02T14:01:45.361Z,24.77
2018-06-02T14:04:13.404Z,24.85
2018-06-02T14:06:41.993Z,25.28
2018-06-02T14:09:10.625Z,24.96
2018-06-02T14:11:38.951Z,24.84
2018-06-02T14:14:07.273Z,25.45
2018-06-02T14:16:35.590Z,25.68
2018-06-02T14:19:03.923Z,26.10
2018-06-02T14:21:31.666Z,25.16
2018-06-02T14:24:00.906Z,24.85
2018-06-02T14:26:29.365Z,24.38
2018-06-02T14:28:57.686Z,24.64
2018-06-02T14:31:25.996Z,24.44
2018-06-02T14:33:54.641Z,23.84
2018-06-02T14:36:22.951Z,22.94
2018-06-02T14:38:51.607Z,22.68
2018-06-02T14:41:20.286Z,22.47
2018-06-02T14:43:48.618Z,22.33
2018-06-02T14:46:17.267Z,21.18
2018-06-02T14:48:45.583Z,20.87
2018-06-02T14:51:13.427Z,20.66
2018-06-02T14:53:42.288Z,20.89
2018-06-02T14:56:10.609Z,20.97
2018-06-02T14:58:38.928Z,20.67
2018-06-02T15:01:07.540Z,19.84
2018-06-02T15:03:36.129Z,19.02
2018-06-02T15:06:04.723Z,18.89
2018-06-02T15:08:33.397Z,18.33
2018-06-02T15:11:01.325Z,18.09
2018-06-02T15:13:30.507Z,17.75
2018-06-02T15:15:58.831Z,17.82
2018-06-02T15:18:27.831Z,17.73
2018-06-02T15:20:56.422Z,17.42
2018-06-02T15:23:24.742Z,17.17
2018-06-02T15:25:53.384Z,17.18
2018-06-02T15:28:21.795Z,17.20
2018-06-02T15:30:50.472Z,17.28
2018-06-02T15:33:19.303Z,17.33
2018-06-02T15:35:47.028Z,17.48
2018-06-02T15:38:15.649Z,16.92
2018-06-02T15:40:44.226Z,16.11
2018-06-02T15:43:12.874Z,16.13
2018-06-02T15:45:41.189Z,15.91
2018-06-02T15:48:09.527Z,15.83
2018-06-02T15:50:37.243Z,15.82
2018-06-02T15:53:06.500Z,15.92
2018-06-02T15:55:34.827Z,16.16
2018-06-02T15:58:02.568Z,16.42
2018-06-02T16:00:31.748Z,16.40
2018-06-02T16:02:59.489Z,16.37
2018-06-02T16:05:28.385Z,16.65
2018-06-02T16:07:56.701Z,16.94
2018-06-02T16:10:24.456Z,17.06
2018-06-02T16:12:53.409Z,17.37
2018-06-02T16:15:21.366Z,17.07
2018-06-02T16:17:50.257Z,17.56
2018-06-02T16:20:18.809Z,17.57
2018-06-02T16:22:47.125Z,17.67
2018-06-02T16:25:16.739Z,17.86
2018-06-02T16:27:45.055Z,18.33
2018-06-02T16:30:13.768Z,18.65
2018-06-02T16:32:42.097Z,18.91
2018-06-02T16:35:10.721Z,19.06
2018-06-02T16:37:39.027Z,19.36
2018-06-02T16:40:07.381Z,19.66
2018-06-02T16:42:35.869Z,19.93
2018-06-02T16:45:03.614Z,20.33
2018-06-02T16:47:32.510Z,20.68
2018-06-02T16:50:01.095Z,21.10
2018-06-02T16:52:29.425Z,21.04
2018-06-02T16:54:58.066Z,21.26
2018-06-02T16:57:26.383Z,21.56
2018-06-02T16:59:54.725Z,22.19
2018-06-02T17:02:23.849Z,22.88
2018-06-02T17:04:52.177Z,23.36
2018-06-02T17:07:20.500Z,24.45
2018-06-02T17:09:48.824Z,25.04
2018-06-02T17:12:17.148Z,25.89
2018-06-02T17:14:45.739Z,26.71
2018-06-02T17:17:14.066Z,27.68
2018-06-02T17:19:42.388Z,28.44
2018-06-02T17:22:10.884Z,29.49
2018-06-02T17:24:39.548Z,30.25
2018-06-02T17:27:07.883Z,31.04
2018-06-02T17:29:36.206Z,31.82
2018-06-02T17:32:04.896Z,32.47
2018-06-02T17:34:33.228Z,33.38
2018-06-02T17:37:01.548Z,34.04
2018-06-02T17:39:29.881Z,34.81
2018-06-02T17:41:58.199Z,35.66
2018-06-02T17:44:26.813Z,36.63
2018-06-02T17:46:54.738Z,37.37
2018-06-02T17:49:23.254Z,38.18
2018-06-02T17:51:52.354Z,38.82
2018-06-02T17:54:20.676Z,39.38
2018-06-02T17:56:48.417Z,40.00
2018-06-02T17:59:17.720Z,40.17
2018-06-02T18:01:46.383Z,40.66
2018-06-02T18:04:14.709Z,41.08
2018-06-02T18:06:43.034Z,41.54
2018-06-02T18:09:11.357Z,41.75
2018-06-02T18:11:39.676Z,41.93
2018-06-02T18:14:07.425Z,42.25
2018-06-02T18:16:36.334Z,42.41
2018-06-02T18:19:04.964Z,42.42
2018-06-02T18:21:33.355Z,42.55
2018-06-02T18:24:01.670Z,42.90
2018-06-02T18:26:29.413Z,43.12
2018-06-02T18:28:57.745Z,43.74
2018-06-02T18:31:26.647Z,44.38
2018-06-02T18:33:54.966Z,44.74
2018-06-02T18:36:23.296Z,45.11
2018-06-02T18:38:51.635Z,45.42
2018-06-02T18:41:20.265Z,45.70
2018-06-02T18:43:48.017Z,45.91
2018-06-02T18:46:16.343Z,46.18
2018-06-02T18:48:45.520Z,46.43
2018-06-02T18:51:13.851Z,46.73
2018-06-02T18:53:42.237Z,46.75
2018-06-02T18:56:10.477Z,46.82
2018-06-02T18:58:39.488Z,46.59
2018-06-02T19:01:08.138Z,46.52
2018-06-02T19:03:36.468Z,46.75
2018-06-02T19:06:04.790Z,47.33
2018-06-02T19:08:33.112Z,47.65
2018-06-02T19:11:01.434Z,47.68
2018-06-02T19:13:30.049Z,48.09
2018-06-02T19:15:58.727Z,48.35
2018-06-02T19:18:27.055Z,48.86
2018-06-02T19:20:56.245Z,49.23
2018-06-02T19:23:24.709Z,49.43
2018-06-02T19:25:53.069Z,49.74
2018-06-02T19:28:21.790Z,50.02
2018-06-02T19:30:50.148Z,50.37
2018-06-02T19:33:18.492Z,51.08
2018-06-02T19:35:46.823Z,51.20
2018-06-02T19:38:14.562Z,51.42
2018-06-02T19:40:43.537Z,51.60
2018-06-02T19:43:12.144Z,51.76
2018-06-02T19:45:40.453Z,51.93
2018-06-02T19:48:09.133Z,52.34
2018-06-02T19:50:38.446Z,52.71
2018-06-02T19:53:06.180Z,53.04
2018-06-02T19:55:35.546Z,53.37
2018-06-02T19:58:04.604Z,53.75
2018-06-02T20:00:32.937Z,54.05
2018-06-02T20:03:00.741Z,54.35
2018-06-02T20:05:29.923Z,54.79
2018-06-02T20:07:57.725Z,55.16
2018-06-02T20:10:25.997Z,55.39
2018-06-02T20:12:55.164Z,55.78
2018-06-02T20:15:23.675Z,56.08
2018-06-02T20:17:57.122Z,56.51
2018-06-02T20:20:28.111Z,56.86
2018-06-02T20:22:56.875Z,56.91
2018-06-02T20:25:26.240Z,57.09
2018-06-02T20:27:54.859Z,57.28
2018-06-02T20:30:23.182Z,57.59
2018-06-02T20:32:51.498Z,57.78
2018-06-02T20:35:20.965Z,58.00
2018-06-02T20:37:49.616Z,58.30
2018-06-02T20:40:18.314Z,58.53
2018-06-02T20:42:46.621Z,58.73
2018-06-02T20:45:14.983Z,58.98
2018-06-02T20:47:42.847Z,59.23
2018-06-02T20:50:12.190Z,59.42
2018-06-02T20:52:40.656Z,59.51
2018-06-02T20:55:08.980Z,59.62
2018-06-02T20:57:37.731Z,59.76
2018-06-02T21:00:06.387Z,59.99
2018-06-02T21:02:34.711Z,60.36
2018-06-02T21:05:03.076Z,60.60
2018-06-02T21:07:31.738Z,60.57
2018-06-02T21:10:00.424Z,60.72
2018-06-02T21:12:28.446Z,60.86
2018-06-02T21:14:58.554Z,61.15
2018-06-02T21:17:27.319Z,61.26
2018-06-02T21:19:55.652Z,61.28
2018-06-02T21:22:24.576Z,61.29
2018-06-02T21:24:52.936Z,61.33
2018-06-02T21:27:23.642Z,61.51
2018-06-02T21:29:51.943Z,61.77
2018-06-02T21:32:20.540Z,62.04
2018-06-02T21:34:48.863Z,62.25
2018-06-02T21:37:17.181Z,62.38
2018-06-02T21:39:45.572Z,62.50
2018-06-02T21:42:14.031Z,62.58
2018-06-02T21:44:41.772Z,62.81
2018-06-02T21:47:10.707Z,63.09
2018-06-02T21:49:39.369Z,63.28
2018-06-02T21:52:09.193Z,63.38
2018-06-02T21:54:39.053Z,63.40
2018-06-02T21:57:07.421Z,63.60
2018-06-02T21:59:35.737Z,63.81
2018-06-02T22:02:04.553Z,64.05
2018-06-02T22:04:32.293Z,64.26
2018-06-02T22:07:01.194Z,64.36
2018-06-02T22:09:29.510Z,64.53
2018-06-02T22:11:57.826Z,64.65
2018-06-02T22:14:26.228Z,64.72
2018-06-02T22:16:54.578Z,64.81
2018-06-02T22:19:22.906Z,64.92
2018-06-02T22:21:51.219Z,64.97
2018-06-02T22:24:19.582Z,65.13
2018-06-02T22:26:48.228Z,65.29
2018-06-02T22:29:16.545Z,65.43
2018-06-02T22:31:45.898Z,65.60
2018-06-02T22:34:14.989Z,65.64
2018-06-02T22:36:43.664Z,65.68
2018-06-02T22:39:12.282Z,65.59
2018-06-02T22:41:40.596Z,65.54
2018-06-02T22:44:13.821Z,65.75
2018-06-02T22:46:42.134Z,65.86
2018-06-02T22:49:11.476Z,65.97
2018-06-02T22:51:50.913Z,66.22
2018-06-02T22:54:20.531Z,66.41
2018-06-02T22:56:48.269Z,66.65
2018-06-02T22:59:17.426Z,66.82
2018-06-02T23:01:45.751Z,66.97
2018-06-02T23:04:13.492Z,66.97
2018-06-02T23:06:42.763Z,67.12
2018-06-02T23:09:11.055Z,67.22
2018-06-02T23:11:38.966Z,67.31
2018-06-02T23:14:08.212Z,67.49
2018-06-02T23:16:36.803Z,67.61
2018-06-02T23:19:05.127Z,67.57
2018-06-02T23:21:33.443Z,67.33
2018-06-02T23:24:02.045Z,66.84
2018-06-02T23:26:30.836Z,66.78
2018-06-02T23:28:59.853Z,67.06
2018-06-02T23:31:28.287Z,67.23
2018-06-02T23:33:56.698Z,67.58
2018-06-02T23:36:24.433Z,67.82
2018-06-02T23:38:52.786Z,68.25
2018-06-02T23:41:21.745Z,68.62
2018-06-02T23:43:50.866Z,68.79
2018-06-02T23:46:18.608Z,68.85
2018-06-02T23:48:47.508Z,68.86
2018-06-02T23:51:16.997Z,68.91
2018-06-02T23:53:44.622Z,69.00
2018-06-02T23:56:13.236Z,69.15
2018-06-02T23:58:41.551Z,69.38
